createdAt,value
2023-01-25T00:00:16.670Z,12
2023-01-25T00:05:16.660Z,11
2023-01-25T00:10:16.729Z,15
2023-01-25T00:15:16.882Z,17
2023-01-25T00:20:16.824Z,14
2023-01-25T00:25:17.181Z,17
2023-01-25T00:30:16.663Z,16
2023-01-25T00:35:16.816Z,12
2023-01-25T00:40:16.816Z,14
2023-01-25T00:45:16.738Z,15
2023-01-25T00:50:16.781Z,18
2023-01-25T00:55:16.810Z,17
2023-01-25T01:00:16.844Z,14
2023-01-25T01:05:17.034Z,15
2023-01-25T01:10:16.792Z,13
2023-01-25T01:15:16.759Z,13
2023-01-25T01:20:17.109Z,12
2023-01-25T01:25:17.031Z,13
2023-01-25T01:30:17.031Z,12
2023-01-25T01:35:17.069Z,8
2023-01-25T01:40:17.090Z,10
2023-01-25T01:45:16.829Z,12
2023-01-25T01:50:17.018Z,10
2023-01-25T01:55:16.941Z,10
2023-01-25T02:00:16.878Z,9
2023-01-25T02:05:16.927Z,12
2023-01-25T02:10:17.212Z,10
2023-01-25T02:15:17.210Z,9
2023-01-25T02:20:16.939Z,8
2023-01-25T02:25:17.180Z,9
2023-01-25T02:30:16.937Z,8
2023-01-25T02:35:16.945Z,10
2023-01-25T02:40:16.982Z,7
2023-01-25T02:45:17.101Z,6
2023-01-25T02:50:17.113Z,4
2023-01-25T02:55:16.981Z,5
2023-01-25T03:00:17.694Z,6
2023-01-25T03:05:17.176Z,5
2023-01-25T03:10:17.158Z,7
2023-01-25T03:15:17.321Z,6
2023-01-25T03:20:17.091Z,5
2023-01-25T03:25:17.201Z,4
2023-01-25T03:30:17.145Z,5
2023-01-25T03:35:17.283Z,6
2023-01-25T03:40:17.336Z,6
2023-01-25T03:45:17.256Z,5
2023-01-25T03:50:17.193Z,4
2023-01-25T03:55:17.126Z,5
2023-01-25T04:00:17.419Z,6
2023-01-25T04:05:17.168Z,4
2023-01-25T04:10:17.256Z,6
2023-01-25T04:15:17.565Z,6
2023-01-25T04:20:17.425Z,5
2023-01-25T04:25:17.251Z,6
2023-01-25T04:30:17.285Z,8
2023-01-25T04:35:17.266Z,8
2023-01-25T04:40:17.239Z,8
2023-01-25T04:45:17.249Z,7
2023-01-25T04:50:17.273Z,9
2023-01-25T04:55:17.261Z,9
2023-01-25T05:00:16.335Z,7
2023-01-25T05:05:16.389Z,9
2023-01-25T05:10:16.315Z,8
2023-01-25T05:15:16.304Z,7
2023-01-25T05:20:16.338Z,8
2023-01-25T05:25:16.399Z,7
2023-01-25T05:30:16.366Z,7
2023-01-25T05:35:16.530Z,8
2023-01-25T05:40:16.413Z,9
2023-01-25T05:45:16.417Z,8
2023-01-25T05:50:16.394Z,8
2023-01-25T05:55:16.584Z,13
2023-01-25T06:00:16.456Z,8
2023-01-25T06:05:16.741Z,11
2023-01-25T06:10:16.558Z,8
2023-01-25T06:15:16.437Z,7
2023-01-25T06:20:16.429Z,7
2023-01-25T06:25:16.493Z,7
2023-01-25T06:30:16.508Z,9
2023-01-25T06:35:16.539Z,8
2023-01-25T06:40:16.544Z,7
2023-01-25T06:45:16.415Z,7
2023-01-25T06:50:16.576Z,10
2023-01-25T06:55:16.816Z,9
2023-01-25T07:00:16.609Z,8
2023-01-25T07:05:16.638Z,7
2023-01-25T07:10:16.556Z,7
2023-01-25T07:15:16.620Z,7
2023-01-25T07:20:16.649Z,8
2023-01-25T07:25:16.821Z,7
2023-01-25T07:30:16.621Z,8
2023-01-25T07:35:16.685Z,6
2023-01-25T07:40:16.670Z,6
2023-01-25T07:45:16.655Z,6
2023-01-25T07:50:16.989Z,4
2023-01-25T07:55:16.618Z,7
2023-01-25T08:00:16.799Z,8
2023-01-25T08:05:16.700Z,7
2023-01-25T08:10:16.921Z,5
2023-01-25T08:15:16.785Z,5
2023-01-25T08:20:16.819Z,8
2023-01-25T08:25:16.874Z,11
2023-01-25T08:30:16.888Z,10
2023-01-25T08:35:16.801Z,7
2023-01-25T08:40:16.779Z,8
2023-01-25T08:45:16.987Z,7
2023-01-25T08:50:16.908Z,7
2023-01-25T08:55:16.819Z,6
2023-01-25T09:00:16.997Z,8
2023-01-25T09:05:18.296Z,6
2023-01-25T09:10:16.880Z,7
2023-01-25T09:15:16.852Z,7
2023-01-25T09:20:16.953Z,6
2023-01-25T09:25:17.019Z,6
2023-01-25T09:30:19.064Z,6
2023-01-25T09:35:16.920Z,6
2023-01-25T09:40:16.952Z,4
2023-01-25T09:45:16.916Z,3
2023-01-25T09:50:17.084Z,3
2023-01-25T09:55:16.911Z,6
2023-01-25T10:00:16.960Z,6
2023-01-25T10:05:17.007Z,8
2023-01-25T10:10:17.074Z,8
2023-01-25T10:15:17.073Z,7
2023-01-25T10:20:17.197Z,8
2023-01-25T10:25:17.161Z,8
2023-01-25T10:30:17.044Z,8
2023-01-25T10:35:29.270Z,8
2023-01-25T10:40:17.119Z,7
2023-01-25T10:45:17.251Z,9
2023-01-25T10:50:17.057Z,8
2023-01-25T10:55:17.086Z,10
2023-01-25T11:00:17.167Z,6
2023-01-25T11:05:17.271Z,6
2023-01-25T11:10:17.526Z,6
2023-01-25T11:15:17.174Z,2
2023-01-25T11:20:17.198Z,1
2023-01-25T11:25:17.279Z,2
2023-01-25T11:30:17.472Z,2
2023-01-25T11:35:17.208Z,1
2023-01-25T11:40:17.243Z,0
2023-01-25T11:45:17.157Z,2
2023-01-25T11:50:17.121Z,2
2023-01-25T11:55:17.138Z,1
2023-01-25T12:00:17.168Z,2
2023-01-25T12:05:21.780Z,3
2023-01-25T12:10:17.241Z,3
2023-01-25T12:15:17.236Z,1
2023-01-25T12:20:17.228Z,2
2023-01-25T12:25:17.300Z,3
2023-01-25T12:30:17.334Z,1
2023-01-25T12:35:17.364Z,2
2023-01-25T12:40:17.312Z,2
2023-01-25T12:45:17.502Z,3
2023-01-25T12:50:17.326Z,3
2023-01-25T12:55:17.446Z,2
2023-01-25T13:00:17.509Z,3
2023-01-25T13:05:17.403Z,2
2023-01-25T13:10:17.449Z,4
2023-01-25T13:15:17.498Z,4
2023-01-25T13:20:17.442Z,4
2023-01-25T13:25:15.375Z,3
2023-01-25T13:30:15.539Z,4
2023-01-25T13:35:15.437Z,3
2023-01-25T13:40:15.545Z,3
2023-01-25T13:45:15.496Z,3
2023-01-25T13:50:15.602Z,2
2023-01-25T13:55:15.376Z,4
2023-01-25T14:00:16.042Z,4
2023-01-25T14:05:15.551Z,3
2023-01-25T14:10:16.344Z,3
2023-01-25T14:15:15.536Z,3
2023-01-25T14:20:15.511Z,3
2023-01-25T14:25:15.589Z,4
2023-01-25T14:30:15.727Z,4
2023-01-25T14:35:15.737Z,4
2023-01-25T14:40:15.776Z,5
2023-01-25T14:45:15.644Z,5
2023-01-25T14:50:15.752Z,5
2023-01-25T14:55:15.609Z,5
2023-01-25T15:00:15.620Z,7
2023-01-25T15:05:16.251Z,9
2023-01-25T15:10:15.630Z,7
2023-01-25T15:15:15.712Z,4
2023-01-25T15:20:15.741Z,5
2023-01-25T15:25:23.888Z,4
2023-01-25T15:30:15.723Z,5
2023-01-25T15:35:15.888Z,3
2023-01-25T15:40:15.727Z,4
2023-01-25T15:45:15.739Z,5
2023-01-25T15:50:15.779Z,7
2023-01-25T15:55:15.694Z,6
2023-01-25T16:00:15.847Z,6
2023-01-25T16:05:15.787Z,7
2023-01-25T16:10:15.785Z,6
2023-01-25T16:15:15.811Z,7
2023-01-25T16:20:16.763Z,6
2023-01-25T16:25:15.906Z,6
2023-01-25T16:30:15.819Z,7
2023-01-25T16:35:15.854Z,4
2023-01-25T16:40:15.815Z,7
2023-01-25T16:45:15.828Z,6
2023-01-25T16:50:15.889Z,6
2023-01-25T16:55:15.969Z,4
2023-01-25T17:00:15.904Z,5
2023-01-25T17:05:15.956Z,6
2023-01-25T17:10:15.929Z,5
2023-01-25T17:15:15.919Z,4
2023-01-25T17:20:15.964Z,2
2023-01-25T17:25:16.019Z,2
2023-01-25T17:30:15.997Z,5
2023-01-25T17:35:16.003Z,4
2023-01-25T17:40:15.963Z,2
2023-01-25T17:45:15.955Z,5
2023-01-25T17:50:16.065Z,8
2023-01-25T17:55:15.880Z,8
2023-01-25T18:00:16.121Z,6
2023-01-25T18:05:16.160Z,5
2023-01-25T18:10:16.131Z,4
2023-01-25T18:15:16.043Z,4
2023-01-25T18:20:16.085Z,4
2023-01-25T18:25:16.227Z,5
2023-01-25T18:30:16.078Z,4
2023-01-25T18:35:16.223Z,5
2023-01-25T18:40:16.158Z,3
2023-01-25T18:45:16.152Z,4
2023-01-25T18:50:16.076Z,4
2023-01-25T18:55:16.167Z,4
2023-01-25T19:00:16.124Z,3
2023-01-25T19:05:16.233Z,4
2023-01-25T19:10:16.312Z,2
2023-01-25T19:15:16.211Z,10
2023-01-25T19:20:16.538Z,10
2023-01-25T19:25:16.492Z,9
2023-01-25T19:30:16.278Z,9
2023-01-25T19:35:16.295Z,11
2023-01-25T19:40:16.408Z,10
2023-01-25T19:45:16.345Z,11
2023-01-25T19:50:16.391Z,9
2023-01-25T19:55:16.376Z,10
2023-01-25T20:00:16.299Z,10
2023-01-25T20:05:16.323Z,12
2023-01-25T20:10:16.383Z,12
2023-01-25T20:15:16.877Z,12
2023-01-25T20:20:16.309Z,11
2023-01-25T20:25:16.372Z,10
2023-01-25T20:30:16.524Z,8
2023-01-25T20:35:16.435Z,7
2023-01-25T20:40:16.394Z,7
2023-01-25T20:45:16.435Z,6
2023-01-25T20:50:16.503Z,6
2023-01-25T20:55:16.449Z,8
2023-01-25T21:00:16.499Z,8
2023-01-25T21:05:16.441Z,9
2023-01-25T21:10:16.480Z,10
2023-01-25T21:15:16.601Z,8
2023-01-25T21:20:16.514Z,7
2023-01-25T21:25:16.521Z,5
2023-01-25T21:30:16.488Z,6
2023-01-25T21:35:16.518Z,5
2023-01-25T21:40:16.531Z,4
2023-01-25T21:45:16.648Z,5
2023-01-25T21:50:16.552Z,7
2023-01-25T21:55:16.499Z,7
2023-01-25T22:00:16.790Z,7
2023-01-25T22:05:16.721Z,8
2023-01-25T22:10:16.590Z,7
2023-01-25T22:15:16.609Z,9
2023-01-25T22:20:16.716Z,9
2023-01-25T22:25:16.613Z,8
2023-01-25T22:30:16.764Z,11
2023-01-25T22:35:16.661Z,10
2023-01-25T22:40:16.677Z,12
2023-01-25T22:45:16.702Z,13
2023-01-25T22:50:16.675Z,13
2023-01-25T22:55:16.713Z,15
2023-01-25T23:00:16.713Z,15
2023-01-25T23:05:16.730Z,14
2023-01-25T23:10:16.783Z,14
2023-01-25T23:15:16.740Z,15
2023-01-25T23:20:16.694Z,14
2023-01-25T23:25:16.718Z,13
2023-01-25T23:30:16.827Z,12
2023-01-25T23:35:16.735Z,10
2023-01-25T23:40:16.807Z,9
2023-01-25T23:45:16.781Z,11
2023-01-25T23:50:16.937Z,13
2023-01-25T23:55:16.770Z,17
